Time;durP1;ratioP1;P1;durP2;ratioP2;P2;SDS_P1;SDS_P2;PMS_P1;PMS_P2;Temp;Humidity;BMP_temperature;BMP_pressure;BME280_temperature;BME280_humidity;BME280_pressure;Samples;Min_cycle;Max_cycle;Signal;HPM_P1;HPM_P2
2022/05/26 00:01:16;;;;;;;0.80;0.80;;;21.90;59.40;;;;;;5122582;28;20212;-73
2022/05/26 00:03:45;;;;;;;1.00;0.82;;;21.90;59.40;;;;;;5105221;28;20180;-72
2022/05/26 00:06:14;;;;;;;1.80;1.10;;;21.90;59.40;;;;;;5106234;28;20293;-72
2022/05/26 00:08:40;;;;;;;1.90;1.30;;;21.90;59.40;;;;;;5092806;28;20177;-73
2022/05/26 00:11:14;;;;;;;1.63;1.40;;;21.90;59.40;;;;;;5065774;28;20258;-73
2022/05/26 00:13:41;;;;;;;1.48;1.20;;;21.90;59.30;;;;;;5066175;28;20193;-72
2022/05/26 00:16:10;;;;;;;1.95;1.15;;;21.90;59.90;;;;;;5064970;28;20209;-72
2022/05/26 00:18:36;;;;;;;1.63;1.00;;;21.90;59.30;;;;;;5065935;28;20182;-73
2022/05/26 00:21:03;;;;;;;1.10;1.00;;;21.80;59.20;;;;;;5066573;28;20206;-73
2022/05/26 00:23:29;;;;;;;2.70;0.98;;;21.80;59.20;;;;;;5083545;28;20197;-73
2022/05/26 00:25:55;;;;;;;1.10;0.95;;;21.80;59.20;;;;;;5071921;28;20271;-72
2022/05/26 00:28:21;;;;;;;1.73;1.20;;;21.80;59.20;;;;;;5082543;28;20185;-73
2022/05/26 00:30:48;;;;;;;1.70;1.10;;;21.80;59.20;;;;;;5083794;28;20177;-73
2022/05/26 00:33:16;;;;;;;1.20;1.10;;;21.80;59.20;;;;;;5100402;28;20268;-73
2022/05/26 00:35:43;;;;;;;1.15;1.05;;;21.80;59.20;;;;;;5082978;28;20229;-72
2022/05/26 00:38:12;;;;;;;1.48;1.00;;;21.80;59.20;;;;;;5084303;28;20217;-73
2022/05/26 00:40:39;;;;;;;1.67;1.20;;;21.80;59.20;;;;;;5084434;28;20233;-73
2022/05/26 00:43:06;;;;;;;1.00;0.90;;;21.80;59.20;;;;;;5066810;28;20185;-73
2022/05/26 00:45:56;;;;;;;1.20;1.10;;;21.80;59.20;;;;;;5085251;28;20205;-73
2022/05/26 00:48:27;;;;;;;1.30;1.20;;;21.80;59.20;;;;;;5082631;28;20600;-73
2022/05/26 00:51:01;;;;;;;2.38;1.27;;;21.80;59.20;;;;;;5062140;28;20186;-73
2022/05/26 00:53:55;;;;;;;1.35;1.10;;;21.80;59.20;;;;;;5080576;28;20188;-73
2022/05/26 00:56:43;;;;;;;1.13;1.10;;;21.80;59.20;;;;;;5080969;28;20214;-73
2022/05/26 00:59:28;;;;;;;1.70;1.05;;;21.80;59.20;;;;;;5098300;28;20177;-73
2022/05/26 01:01:57;;;;;;;1.23;1.08;;;21.80;59.20;;;;;;5081215;28;20206;-73
2022/05/26 01:04:30;;;;;;;1.38;0.95;;;21.80;59.20;;;;;;5080886;28;20185;-73
2022/05/26 01:07:17;;;;;;;0.90;0.90;;;21.80;59.20;;;;;;5080918;28;20237;-73
2022/05/26 01:09:43;;;;;;;1.30;1.20;;;21.80;59.20;;;;;;5081097;28;20186;-73
2022/05/26 01:12:09;;;;;;;1.08;0.98;;;21.80;59.20;;;;;;5081281;28;20205;-73
2022/05/26 01:14:42;;;;;;;1.05;0.95;;;21.80;59.20;;;;;;5081598;28;20225;-73
2022/05/26 01:18:09;;;;;;;0.93;0.93;;;21.70;59.00;;;;;;5081466;28;20232;-73
2022/05/26 01:21:31;;;;;;;0.85;0.85;;;21.70;59.20;;;;;;5082927;28;20239;-73
2022/05/26 01:24:51;;;;;;;1.35;1.02;;;21.80;59.20;;;;;;5034700;28;20197;-73
2022/05/26 01:27:40;;;;;;;0.95;0.90;;;21.80;59.20;;;;;;5069983;28;20205;-73
2022/05/26 01:30:38;;;;;;;0.88;0.88;;;21.70;59.20;;;;;;5100443;28;20190;-73
2022/05/26 01:33:22;;;;;;;1.65;0.88;;;21.80;59.20;;;;;;5082941;28;20328;-72
2022/05/26 01:36:09;;;;;;;1.17;0.93;;;21.80;59.20;;;;;;5066701;28;20209;-72
2022/05/26 01:39:27;;;;;;;1.15;0.95;;;21.70;59.10;;;;;;5078204;28;20192;-72
2022/05/26 01:42:10;;;;;;;1.00;0.90;;;21.80;59.20;;;;;;5097217;28;20200;-73
2022/05/26 01:45:16;;;;;;;1.10;1.00;;;21.70;59.20;;;;;;5124228;28;20195;-73
2022/05/26 01:48:07;;;;;;;0.90;0.90;;;21.70;59.10;;;;;;5123889;28;20205;-73
2022/05/26 01:50:41;;;;;;;1.02;0.93;;;21.70;59.10;;;;;;5123543;28;20192;-73
2022/05/26 01:53:36;;;;;;;0.80;0.80;;;21.70;59.10;;;;;;5107360;28;20191;-73
2022/05/26 01:56:27;;;;;;;0.80;0.80;;;21.70;59.10;;;;;;5124515;28;20219;-72
2022/05/26 01:59:09;;;;;;;0.80;0.80;;;21.70;59.10;;;;;;5124962;28;20210;-73
2022/05/26 02:01:42;;;;;;;1.65;0.70;;;21.70;59.10;;;;;;5122548;28;20226;-73
2022/05/26 02:04:18;;;;;;;0.93;0.93;;;21.70;59.10;;;;;;5124748;28;20184;-73
2022/05/26 02:06:56;;;;;;;0.70;0.70;;;21.70;59.00;;;;;;5123819;28;20203;-73
2022/05/26 02:09:31;;;;;;;0.80;0.80;;;21.70;59.10;;;;;;5123931;28;20184;-73
2022/05/26 02:12:39;;;;;;;0.80;0.80;;;21.70;59.10;;;;;;5124080;28;20179;-73
2022/05/26 02:15:26;;;;;;;2.58;0.93;;;21.70;59.10;;;;;;5124159;28;20192;-73
2022/05/26 02:18:02;;;;;;;2.25;0.90;;;21.70;59.10;;;;;;5123829;28;20187;-73
2022/05/26 02:20:43;;;;;;;0.82;0.82;;;21.70;59.10;;;;;;5124666;28;20172;-74
2022/05/26 02:23:33;;;;;;;0.90;0.90;;;21.70;59.00;;;;;;5107419;28;20181;-73
2022/05/26 02:26:02;;;;;;;0.80;0.80;;;21.70;59.10;;;;;;5106928;28;20679;-72
2022/05/26 02:28:28;;;;;;;0.77;0.75;;;21.70;59.10;;;;;;5087177;28;20200;-73
2022/05/26 02:30:55;;;;;;;0.98;0.88;;;21.70;59.10;;;;;;5105062;28;20272;-73
2022/05/26 02:33:22;;;;;;;0.90;0.90;;;21.70;59.10;;;;;;5087654;28;20185;-73
2022/05/26 02:35:52;;;;;;;1.45;0.90;;;21.70;59.10;;;;;;5086139;28;20217;-73
2022/05/26 02:38:23;;;;;;;1.00;0.95;;;21.70;59.10;;;;;;5103946;28;20185;-73
2022/05/26 02:40:52;;;;;;;3.58;1.10;;;21.70;59.10;;;;;;5086037;28;20216;-73
2022/05/26 02:43:27;;;;;;;0.82;0.70;;;21.70;59.00;;;;;;5085924;28;20671;-73
2022/05/26 02:46:41;;;;;;;0.73;0.73;;;21.60;59.00;;;;;;5102382;28;20207;-72
2022/05/26 02:49:22;;;;;;;0.73;0.73;;;21.70;59.10;;;;;;5103249;28;20248;-73
2022/05/26 02:52:28;;;;;;;0.70;0.65;;;21.70;59.10;;;;;;5085233;28;20184;-73
2022/05/26 02:55:39;;;;;;;0.93;0.80;;;21.70;59.10;;;;;;5082032;28;20189;-73
2022/05/26 02:58:23;;;;;;;0.80;0.80;;;21.60;59.00;;;;;;5082252;28;20271;-72
2022/05/26 03:00:53;;;;;;;0.80;0.80;;;21.70;59.10;;;;;;5082995;28;20205;-73
2022/05/26 03:03:35;;;;;;;0.82;0.82;;;21.70;59.10;;;;;;5082861;28;20182;-73
2022/05/26 03:06:19;;;;;;;1.48;0.80;;;21.70;59.10;;;;;;5083880;28;20221;-72
2022/05/26 03:08:47;;;;;;;1.15;0.95;;;21.70;59.10;;;;;;5099541;28;20189;-73
2022/05/26 03:11:20;;;;;;;0.90;0.90;;;21.70;59.00;;;;;;5098977;28;20181;-73
2022/05/26 03:13:46;;;;;;;0.80;0.80;;;21.70;59.00;;;;;;5081880;28;20227;-73
2022/05/26 03:16:12;;;;;;;0.93;0.90;;;21.60;59.00;;;;;;5099083;28;20269;-72
2022/05/26 03:18:38;;;;;;;0.90;0.90;;;21.60;59.00;;;;;;5064863;28;20247;-73
2022/05/26 03:21:07;;;;;;;0.93;0.93;;;21.70;59.00;;;;;;5081530;28;20704;-73
2022/05/26 03:23:33;;;;;;;0.82;0.80;;;21.60;59.00;;;;;;5065522;28;20280;-73
2022/05/26 03:26:00;;;;;;;0.80;0.80;;;21.60;59.00;;;;;;5080879;28;20212;-72
2022/05/26 03:28:28;;;;;;;1.00;0.80;;;21.60;59.00;;;;;;5064166;28;20178;-73
2022/05/26 03:30:54;;;;;;;0.90;0.90;;;21.60;59.60;;;;;;5064911;28;20193;-72
2022/05/26 03:33:20;;;;;;;0.70;0.70;;;21.60;59.00;;;;;;5064996;28;20186;-73
2022/05/26 03:41:20;;;;;;;0.85;0.80;;;21.60;59.00;;;;;;5080668;28;20219;-73
2022/05/26 03:43:57;;;;;;;0.88;0.80;;;21.60;58.90;;;;;;5063482;28;20185;-74
2022/05/26 03:46:26;;;;;;;0.90;0.90;;;21.60;58.90;;;;;;5082609;28;20201;-72
2022/05/26 03:48:52;;;;;;;1.05;0.95;;;21.60;58.90;;;;;;5090654;28;20542;-73
2022/05/26 03:51:18;;;;;;;0.70;0.70;;;21.60;58.90;;;;;;5064775;28;20193;-73
2022/05/26 03:53:44;;;;;;;1.10;1.00;;;21.60;58.90;;;;;;5080622;28;20182;-72
2022/05/26 03:56:09;;;;;;;0.90;0.90;;;21.60;58.90;;;;;;5082396;28;20232;-73
2022/05/26 03:58:36;;;;;;;0.70;0.70;;;21.60;58.90;;;;;;5064242;28;20190;-73
2022/05/26 04:01:08;;;;;;;0.80;0.80;;;21.60;58.90;;;;;;5063503;28;20220;-72
2022/05/26 04:03:35;;;;;;;0.70;0.60;;;21.60;58.90;;;;;;5082449;28;20225;-73
2022/05/26 04:06:00;;;;;;;1.55;0.80;;;21.60;59.00;;;;;;5080596;28;20209;-72
2022/05/26 04:08:26;;;;;;;1.10;1.00;;;21.60;59.00;;;;;;5064301;28;20188;-73
2022/05/26 04:10:52;;;;;;;0.85;0.82;;;21.60;59.00;;;;;;5063595;28;20178;-72
2022/05/26 04:13:18;;;;;;;1.02;0.90;;;21.60;59.00;;;;;;5063456;28;20196;-73
2022/05/26 04:15:44;;;;;;;0.80;0.80;;;21.60;59.00;;;;;;5062897;28;20205;-73
2022/05/26 04:18:10;;;;;;;0.70;0.70;;;21.60;59.00;;;;;;5080505;28;20186;-73
2022/05/26 04:20:36;;;;;;;0.60;0.60;;;21.60;59.00;;;;;;5081698;28;20192;-73
2022/05/26 04:23:01;;;;;;;0.82;0.82;;;21.60;59.00;;;;;;5064095;28;20177;-73
2022/05/26 04:25:28;;;;;;;0.80;0.80;;;21.60;59.00;;;;;;5082128;28;20253;-73
2022/05/26 04:27:54;;;;;;;0.70;0.70;;;21.50;58.90;;;;;;5064205;28;20204;-73
2022/05/26 04:30:22;;;;;;;0.80;0.80;;;21.60;59.00;;;;;;5081027;28;20649;-73
2022/05/26 04:32:48;;;;;;;0.60;0.60;;;21.60;59.00;;;;;;5098173;28;20182;-73
2022/05/26 04:35:14;;;;;;;0.75;0.75;;;21.60;59.00;;;;;;5081920;28;20177;-73
2022/05/26 04:37:41;;;;;;;0.90;0.90;;;21.60;59.00;;;;;;5080961;28;20185;-73
2022/05/26 04:40:10;;;;;;;0.70;0.70;;;21.50;58.90;;;;;;5080470;28;20182;-72
2022/05/26 04:42:38;;;;;;;0.80;0.80;;;21.60;59.00;;;;;;5082279;28;20213;-73
2022/05/26 04:45:10;;;;;;;0.80;0.80;;;21.60;59.00;;;;;;5082935;28;20198;-72
2022/05/26 04:47:37;;;;;;;0.70;0.70;;;21.50;58.90;;;;;;5066793;28;20203;-73
2022/05/26 04:50:03;;;;;;;0.70;0.70;;;21.60;59.00;;;;;;5083254;28;20205;-72
2022/05/26 04:52:29;;;;;;;1.00;0.90;;;21.60;59.00;;;;;;5067282;28;20186;-73
2022/05/26 04:54:55;;;;;;;0.90;0.80;;;21.60;59.00;;;;;;5069449;28;20181;-73
2022/05/26 04:57:24;;;;;;;0.63;0.63;;;21.50;58.90;;;;;;5086803;28;20210;-73
2022/05/26 04:59:51;;;;;;;0.98;0.98;;;21.50;59.00;;;;;;5072602;28;20219;-73
2022/05/26 05:02:21;;;;;;;0.60;0.60;;;21.60;59.00;;;;;;5072209;28;20262;-73
2022/05/26 05:04:48;;;;;;;0.70;0.70;;;21.50;59.00;;;;;;5064758;28;20174;-73
2022/05/26 05:07:16;;;;;;;0.75;0.75;;;21.60;59.00;;;;;;5068777;28;20245;-73
2022/05/26 05:09:42;;;;;;;0.73;0.73;;;21.50;59.00;;;;;;5122123;28;20225;-73
2022/05/26 05:12:13;;;;;;;1.10;0.70;;;21.60;59.00;;;;;;5127403;28;20601;-72
2022/05/26 05:14:47;;;;;;;0.88;0.88;;;21.60;59.00;;;;;;5125569;28;20192;-73
2022/05/26 05:17:14;;;;;;;0.77;0.77;;;21.60;59.00;;;;;;5126694;28;20211;-73
2022/05/26 05:19:40;;;;;;;0.93;0.80;;;21.60;59.00;;;;;;5126728;28;20176;-73
2022/05/26 05:22:21;;;;;;;0.88;0.85;;;21.60;59.00;;;;;;5109237;28;20227;-73
2022/05/26 05:24:59;;;;;;;0.65;0.65;;;21.60;59.00;;;;;;5127112;28;20160;-73
2022/05/26 05:27:57;;;;;;;0.73;0.73;;;21.50;59.00;;;;;;5125521;28;20275;-72
2022/05/26 05:30:33;;;;;;;0.80;0.80;;;21.50;59.10;;;;;;5124624;28;20198;-73
2022/05/26 05:33:10;;;;;;;0.80;0.80;;;21.60;59.10;;;;;;5125112;28;20172;-73
2022/05/26 05:35:45;;;;;;;0.75;0.75;;;21.50;59.00;;;;;;5124891;28;20203;-73
2022/05/26 05:38:12;;;;;;;0.70;0.70;;;21.60;59.10;;;;;;5141368;27;20248;-73
2022/05/26 05:40:38;;;;;;;0.80;0.80;;;21.60;59.10;;;;;;5125797;28;20651;-73
2022/05/26 05:43:04;;;;;;;0.90;0.90;;;21.60;59.10;;;;;;5120013;28;20655;-72
2022/05/26 05:45:30;;;;;;;0.85;0.80;;;21.60;59.10;;;;;;5092440;28;20204;-72
2022/05/26 05:47:57;;;;;;;1.95;0.77;;;21.50;59.00;;;;;;5085158;28;20187;-72
2022/05/26 05:50:23;;;;;;;0.80;0.80;;;21.50;59.00;;;;;;5085516;28;20177;-73
2022/05/26 05:52:48;;;;;;;0.68;0.68;;;21.50;59.00;;;;;;5086694;28;20577;-72
2022/05/26 05:55:14;;;;;;;0.95;0.63;;;21.50;59.00;;;;;;5085772;28;20193;-72
2022/05/26 05:57:40;;;;;;;0.70;0.70;;;21.60;59.10;;;;;;5085634;28;20189;-73
2022/05/26 06:00:07;;;;;;;0.80;0.80;;;21.60;59.10;;;;;;5100986;28;20239;-73
2022/05/26 06:02:33;;;;;;;0.73;0.73;;;21.60;59.10;;;;;;5087096;28;20229;-73
2022/05/26 06:04:59;;;;;;;0.80;0.80;;;21.60;59.00;;;;;;5082061;28;20180;-73
2022/05/26 06:07:25;;;;;;;0.80;0.80;;;21.60;59.00;;;;;;5078496;28;20181;-73
2022/05/26 06:09:51;;;;;;;0.80;0.65;;;21.60;59.00;;;;;;5082619;28;20285;-73
2022/05/26 06:12:18;;;;;;;0.60;0.60;;;21.60;59.00;;;;;;5076965;28;20187;-73
2022/05/26 06:14:44;;;;;;;0.77;0.77;;;21.70;59.10;;;;;;5080373;28;20186;-73
2022/05/26 06:17:11;;;;;;;0.80;0.77;;;21.70;59.10;;;;;;5075481;28;20239;-72
2022/05/26 06:19:40;;;;;;;1.17;0.93;;;21.70;59.10;;;;;;5071496;28;20181;-73
2022/05/26 06:22:14;;;;;;;0.70;0.70;;;21.70;59.00;;;;;;5087758;28;20211;-73
2022/05/26 06:24:40;;;;;;;0.88;0.70;;;21.60;59.00;;;;;;5076741;28;20170;-73
2022/05/26 06:29:56;;;;;;;0.55;0.55;;;21.70;59.00;;;;;;5091096;28;20185;-72
2022/05/26 06:37:55;;;;;;;0.55;0.55;;;21.70;59.00;;;;;;5085232;28;20190;-73
2022/05/26 06:40:22;;;;;;;0.50;0.50;;;21.60;59.00;;;;;;5067245;28;20212;-72
2022/05/26 06:42:48;;;;;;;0.60;0.60;;;21.70;59.00;;;;;;5084641;28;20216;-73
2022/05/26 06:45:19;;;;;;;0.70;0.70;;;21.70;59.00;;;;;;5081051;28;20188;-73
2022/05/26 06:47:45;;;;;;;0.60;0.60;;;21.70;59.10;;;;;;5084444;28;20181;-73
2022/05/26 06:50:12;;;;;;;0.60;0.60;;;21.70;59.00;;;;;;5101739;28;20237;-73
2022/05/26 06:52:38;;;;;;;0.73;0.60;;;21.60;59.00;;;;;;5084457;28;20184;-72
2022/05/26 06:55:07;;;;;;;0.60;0.60;;;21.60;58.90;;;;;;5081275;28;20268;-72
2022/05/26 06:57:33;;;;;;;0.60;0.60;;;21.70;58.90;;;;;;5081228;28;20177;-72
2022/05/26 07:00:00;;;;;;;1.02;0.63;;;21.70;58.90;;;;;;5072865;28;20198;-72
2022/05/26 07:02:26;;;;;;;0.88;0.63;;;21.60;58.80;;;;;;5071402;28;20277;-72
2022/05/26 07:04:52;;;;;;;0.63;0.55;;;21.70;58.90;;;;;;5064649;28;20272;-73
2022/05/26 07:07:18;;;;;;;1.80;0.63;;;21.70;58.90;;;;;;5065145;28;20209;-73
2022/05/26 07:09:44;;;;;;;0.60;0.60;;;21.70;58.90;;;;;;5100446;28;20184;-73
2022/05/26 07:12:11;;;;;;;0.50;0.50;;;21.70;58.90;;;;;;5104274;28;20218;-73
2022/05/26 07:14:38;;;;;;;1.60;0.50;;;21.70;58.90;;;;;;5105323;28;20184;-71
2022/05/26 07:17:05;;;;;;;0.55;0.55;;;21.70;58.90;;;;;;5104584;28;20204;-72
2022/05/26 07:19:37;;;;;;;0.68;0.68;;;21.70;59.00;;;;;;5104880;28;20237;-72
2022/05/26 07:22:04;;;;;;;0.70;0.70;;;21.70;58.90;;;;;;5104260;28;20215;-72
2022/05/26 07:24:30;;;;;;;0.60;0.60;;;21.70;58.90;;;;;;5104848;28;20668;-73
2022/05/26 07:26:56;;;;;;;0.70;0.63;;;21.70;58.90;;;;;;5104501;28;20200;-72
2022/05/26 07:29:23;;;;;;;0.55;0.55;;;21.70;58.90;;;;;;5105295;28;20184;-72
2022/05/26 07:31:49;;;;;;;2.28;0.60;;;21.80;59.00;;;;;;5105287;28;20176;-73
2022/05/26 07:34:14;;;;;;;1.23;0.60;;;21.70;58.90;;;;;;5105446;28;20273;-72
2022/05/26 07:42:15;;;;;;;0.60;0.60;;;21.80;58.90;;;;;;5107678;28;20203;-72
2022/05/26 07:44:47;;;;;;;0.63;0.63;;;21.80;58.80;;;;;;5102606;28;20219;-72
2022/05/26 07:47:14;;;;;;;0.93;0.60;;;21.80;58.70;;;;;;5085438;28;20209;-72
2022/05/26 07:49:47;;;;;;;0.63;0.63;;;21.80;58.60;;;;;;5101996;28;20180;-72
2022/05/26 07:52:15;;;;;;;0.60;0.60;;;21.80;58.70;;;;;;5081042;28;20189;-73
2022/05/26 07:54:43;;;;;;;0.70;0.70;;;21.80;58.70;;;;;;5082229;28;20202;-72
2022/05/26 07:57:28;;;;;;;0.50;0.50;;;21.80;58.60;;;;;;5082133;28;20206;-73
2022/05/26 07:59:57;;;;;;;1.15;0.60;;;21.90;58.70;;;;;;5081765;28;20194;-72
2022/05/26 08:02:24;;;;;;;0.63;0.60;;;21.90;58.70;;;;;;5082096;28;20228;-72
2022/05/26 08:04:50;;;;;;;1.75;0.88;;;21.90;58.70;;;;;;5065971;28;20181;-72
2022/05/26 08:07:17;;;;;;;0.68;0.60;;;21.90;58.50;;;;;;5065323;28;20209;-73
2022/05/26 08:09:43;;;;;;;1.05;0.60;;;21.90;59.10;;;;;;5103077;28;20186;-73
2022/05/26 08:12:11;;;;;;;0.60;0.60;;;21.90;58.70;;;;;;5122972;28;20208;-72
2022/05/26 08:14:39;;;;;;;0.60;0.60;;;21.90;58.60;;;;;;5105885;28;20184;-73
2022/05/26 08:17:05;;;;;;;0.52;0.50;;;22.00;58.50;;;;;;5105793;28;20203;-72
2022/05/26 08:19:32;;;;;;;1.27;0.50;;;21.90;58.40;;;;;;5105750;28;20188;-72
2022/05/26 08:21:58;;;;;;;1.23;0.50;;;22.00;58.70;;;;;;5123574;28;20691;-72
2022/05/26 08:24:25;;;;;;;0.70;0.70;;;22.00;58.50;;;;;;5122355;28;20180;-72
2022/05/26 08:26:51;;;;;;;0.50;0.50;;;22.00;58.50;;;;;;5104628;28;20211;-73
2022/05/26 08:29:18;;;;;;;0.50;0.50;;;21.90;58.50;;;;;;5100616;28;20208;-73
2022/05/26 08:31:44;;;;;;;0.52;0.52;;;21.90;58.80;;;;;;5088419;28;20196;-73
2022/05/26 08:34:11;;;;;;;0.60;0.47;;;22.00;58.70;;;;;;5089624;28;20184;-72
2022/05/26 08:36:37;;;;;;;0.88;0.68;;;22.00;58.70;;;;;;5072975;28;20213;-71
2022/05/26 08:39:04;;;;;;;0.68;0.50;;;22.00;58.60;;;;;;5068561;28;20181;-72
2022/05/26 08:41:57;;;;;;;0.50;0.50;;;22.00;58.60;;;;;;5067402;28;20270;-72
2022/05/26 08:44:41;;;;;;;0.57;0.50;;;22.00;58.50;;;;;;5081279;28;20193;-72
2022/05/26 08:47:15;;;;;;;1.48;0.60;;;22.00;58.50;;;;;;5067325;28;20259;-72
2022/05/26 08:49:51;;;;;;;0.70;0.70;;;22.00;58.80;;;;;;5083914;28;20170;-72
2022/05/26 08:52:30;;;;;;;0.60;0.60;;;22.00;58.70;;;;;;5066873;28;20220;-73
2022/05/26 08:55:08;;;;;;;0.40;0.40;;;22.00;58.70;;;;;;5080510;28;20185;-72
2022/05/26 08:58:26;;;;;;;1.95;0.57;;;22.00;58.80;;;;;;5068616;28;20228;-73
2022/05/26 09:00:54;;;;;;;1.55;0.60;;;22.00;58.70;;;;;;5004596;28;20223;-71
2022/05/26 09:03:22;;;;;;;0.60;0.60;;;22.00;58.70;;;;;;5026971;28;20567;-72
2022/05/26 09:06:03;;;;;;;0.80;0.80;;;22.00;58.70;;;;;;5071322;28;20250;-72
2022/05/26 09:14:21;;;;;;;0.73;0.60;;;22.10;59.20;;;;;;5106135;28;20181;-73
2022/05/26 09:16:46;;;;;;;1.63;0.60;;;22.10;58.60;;;;;;5088622;28;20216;-72
2022/05/26 09:19:20;;;;;;;0.70;0.50;;;22.10;58.60;;;;;;5084655;28;20189;-72
2022/05/26 09:21:50;;;;;;;0.75;0.60;;;22.10;58.60;;;;;;5084007;28;20217;-72
2022/05/26 09:24:25;;;;;;;0.75;0.50;;;22.10;58.60;;;;;;5100196;28;20189;-72
2022/05/26 09:27:02;;;;;;;0.70;0.70;;;22.00;58.60;;;;;;5083021;28;20303;-71
2022/05/26 09:29:33;;;;;;;0.52;0.50;;;22.10;58.60;;;;;;5082361;28;20184;-72
2022/05/26 09:32:01;;;;;;;1.65;0.60;;;22.10;58.50;;;;;;5102409;28;20230;-72
2022/05/26 09:34:34;;;;;;;0.60;0.60;;;22.10;58.50;;;;;;5084109;28;20203;-72
2022/05/26 09:37:04;;;;;;;0.50;0.50;;;22.10;58.60;;;;;;5100594;28;20215;-72
2022/05/26 09:39:42;;;;;;;0.60;0.60;;;22.10;58.60;;;;;;5100645;28;20222;-72
2022/05/26 09:42:17;;;;;;;0.98;0.52;;;22.10;58.60;;;;;;5098987;28;20268;-72
2022/05/26 09:44:55;;;;;;;1.13;0.80;;;22.00;58.50;;;;;;5098811;28;20180;-72
2022/05/26 09:47:34;;;;;;;1.33;0.77;;;22.10;58.60;;;;;;5100062;28;20230;-72
2022/05/26 09:50:12;;;;;;;1.70;0.50;;;22.00;58.50;;;;;;5099245;28;20231;-72
2022/05/26 09:52:49;;;;;;;1.73;0.65;;;22.00;58.50;;;;;;5098800;28;20173;-72
2022/05/26 09:55:35;;;;;;;3.20;0.60;;;22.10;58.50;;;;;;5073553;28;20193;-71
2022/05/26 09:58:04;;;;;;;1.65;0.68;;;22.10;58.40;;;;;;5078886;28;20170;-72
2022/05/26 10:00:37;;;;;;;2.13;0.60;;;22.10;58.40;;;;;;5062209;28;20247;-71
2022/05/26 10:04:08;;;;;;;1.70;0.43;;;22.10;58.40;;;;;;5079775;28;20182;-71
2022/05/26 10:06:49;;;;;;;0.85;0.50;;;22.10;58.50;;;;;;5050026;28;20219;-70
2022/05/26 10:09:46;;;;;;;1.10;0.70;;;22.10;58.40;;;;;;5104580;28;20219;-71
2022/05/26 10:12:33;;;;;;;2.35;0.65;;;22.10;58.60;;;;;;5118450;28;20198;-71
2022/05/26 10:15:20;;;;;;;1.08;0.80;;;22.10;58.60;;;;;;5087142;28;20181;-71
2022/05/26 10:18:40;;;;;;;2.28;0.75;;;22.10;58.60;;;;;;5097882;28;20406;-72
2022/05/26 10:21:45;;;;;;;0.82;0.70;;;22.10;59.20;;;;;;5052631;28;20213;-72
2022/05/26 10:24:49;;;;;;;0.45;0.45;;;22.10;58.60;;;;;;5098435;28;20181;-72
2022/05/26 10:27:36;;;;;;;1.38;0.80;;;22.10;58.60;;;;;;5081687;28;20204;-71
2022/05/26 10:30:29;;;;;;;0.52;0.52;;;22.10;58.60;;;;;;5099546;28;20660;-71
2022/05/26 10:33:18;;;;;;;2.33;0.80;;;22.10;58.60;;;;;;5098883;28;20185;-72
2022/05/26 10:36:24;;;;;;;1.33;0.60;;;22.20;58.60;;;;;;5098379;28;20213;-72
2022/05/26 10:39:21;;;;;;;0.70;0.60;;;22.20;58.70;;;;;;5096846;28;20204;-72
2022/05/26 10:41:58;;;;;;;0.80;0.68;;;22.10;58.60;;;;;;5099214;28;20221;-72
2022/05/26 10:44:35;;;;;;;0.60;0.50;;;22.10;58.60;;;;;;5097996;28;20169;-72
2022/05/26 10:47:45;;;;;;;1.90;0.60;;;22.10;58.60;;;;;;5099927;28;20222;-73
2022/05/26 10:50:40;;;;;;;0.50;0.50;;;22.10;58.60;;;;;;5059508;28;20195;-72
2022/05/26 10:53:31;;;;;;;1.73;0.70;;;22.10;59.30;;;;;;5099045;28;20169;-72
2022/05/26 10:56:31;;;;;;;0.57;0.50;;;22.10;58.60;;;;;;5084561;28;20216;-72
2022/05/26 10:59:27;;;;;;;1.95;0.73;;;22.10;58.60;;;;;;5099282;28;20264;-72
2022/05/26 11:02:17;;;;;;;1.02;0.65;;;22.10;58.50;;;;;;5074058;28;20194;-72
2022/05/26 11:05:27;;;;;;;1.23;0.70;;;22.20;58.60;;;;;;5092097;28;20169;-72
2022/05/26 11:08:13;;;;;;;0.82;0.68;;;22.10;58.50;;;;;;5099007;28;20193;-72
2022/05/26 11:10:47;;;;;;;2.22;1.00;;;22.10;58.30;;;;;;5081754;28;20188;-72
2022/05/26 11:13:41;;;;;;;0.90;0.70;;;22.10;58.30;;;;;;5099811;28;20169;-72
2022/05/26 11:19:35;;;;;;;0.93;0.70;;;22.10;58.40;;;;;;5099288;28;20206;-73
2022/05/26 11:22:04;;;;;;;1.65;0.88;;;22.10;58.40;;;;;;5099299;28;20201;-72
2022/05/26 11:24:30;;;;;;;1.27;0.60;;;22.20;58.30;;;;;;5099355;28;20181;-71
2022/05/26 11:27:27;;;;;;;2.15;1.33;;;22.20;58.40;;;;;;5098177;28;20288;-72
2022/05/26 11:30:03;;;;;;;0.68;0.63;;;22.20;58.40;;;;;;5097910;28;20185;-71
2022/05/26 11:38:48;;;;;;;0.80;0.68;;;22.20;58.30;;;;;;5099146;28;20184;-71
2022/05/26 11:41:45;;;;;;;2.17;0.65;;;22.20;58.10;;;;;;5107684;28;20251;-72
2022/05/26 11:44:11;;;;;;;0.70;0.70;;;22.20;58.20;;;;;;5097899;28;20181;-72
2022/05/26 11:46:50;;;;;;;2.00;0.57;;;22.20;58.20;;;;;;5098692;28;20349;-72
2022/05/26 11:49:55;;;;;;;1.50;0.70;;;22.20;58.20;;;;;;5115540;28;20177;-72
2022/05/26 11:52:35;;;;;;;0.90;0.57;;;22.20;58.20;;;;;;5067200;28;20268;-72
2022/05/26 11:55:16;;;;;;;0.60;0.60;;;22.20;58.00;;;;;;5098266;28;20185;-71
2022/05/26 11:57:41;;;;;;;0.90;0.80;;;22.20;58.10;;;;;;5098516;28;20188;-72
2022/05/26 12:00:19;;;;;;;0.63;0.60;;;22.20;58.30;;;;;;5090869;28;20285;-72
2022/05/26 12:02:51;;;;;;;1.58;0.80;;;22.20;58.20;;;;;;5077213;28;20236;-72
2022/05/26 12:05:28;;;;;;;1.10;0.80;;;22.20;58.30;;;;;;5058144;28;20197;-71
2022/05/26 12:08:06;;;;;;;1.08;0.73;;;22.20;58.20;;;;;;5075901;28;20196;-72
2022/05/26 12:10:57;;;;;;;0.60;0.60;;;22.10;58.10;;;;;;5076439;28;20240;-71
2022/05/26 12:13:23;;;;;;;0.63;0.63;;;22.10;58.10;;;;;;5074361;28;20644;-71
2022/05/26 12:16:14;;;;;;;2.10;0.80;;;22.20;58.30;;;;;;5075055;28;20280;-71
2022/05/26 12:18:50;;;;;;;0.95;0.70;;;22.20;58.30;;;;;;5074830;28;20185;-71
2022/05/26 12:21:39;;;;;;;0.90;0.80;;;22.20;58.20;;;;;;5076995;28;20189;-72
2022/05/26 12:24:34;;;;;;;1.92;0.80;;;22.20;58.30;;;;;;5059542;28;20649;-71
2022/05/26 12:27:03;;;;;;;1.17;0.55;;;22.20;58.40;;;;;;5077231;28;20228;-71
2022/05/26 12:29:47;;;;;;;1.05;0.80;;;22.20;58.40;;;;;;5058838;28;20201;-71
2022/05/26 12:32:30;;;;;;;0.73;0.73;;;22.20;58.40;;;;;;5058737;28;20256;-71
2022/05/26 12:35:04;;;;;;;0.85;0.80;;;22.20;58.30;;;;;;5072859;28;20250;-71
2022/05/26 12:38:31;;;;;;;1.05;0.70;;;22.20;58.40;;;;;;5094858;28;20275;-71
2022/05/26 12:40:59;;;;;;;2.05;0.70;;;22.20;58.40;;;;;;5078185;28;20679;-72
2022/05/26 12:43:54;;;;;;;0.82;0.80;;;22.20;58.40;;;;;;5078286;28;20192;-71
2022/05/26 12:46:58;;;;;;;0.70;0.70;;;22.20;58.30;;;;;;5071392;28;20688;-72
2022/05/26 12:49:31;;;;;;;0.88;0.55;;;22.20;58.50;;;;;;5093899;28;20743;-71
2022/05/26 12:52:57;;;;;;;2.58;0.90;;;22.20;58.50;;;;;;5096095;28;20177;-71
2022/05/26 12:55:50;;;;;;;1.52;0.60;;;22.20;58.50;;;;;;5095939;28;20173;-71
2022/05/26 12:58:26;;;;;;;0.68;0.60;;;22.30;58.50;;;;;;5095345;28;20223;-71
2022/05/26 13:00:55;;;;;;;0.70;0.70;;;22.30;58.50;;;;;;5095176;28;20306;-71
2022/05/26 13:03:40;;;;;;;0.82;0.60;;;22.30;58.50;;;;;;5078680;28;20189;-72
2022/05/26 13:06:22;;;;;;;2.58;0.82;;;22.20;58.50;;;;;;5077767;28;20205;-71
2022/05/26 13:09:08;;;;;;;0.73;0.73;;;22.20;58.50;;;;;;5078431;28;20189;-71
2022/05/26 13:11:44;;;;;;;0.88;0.77;;;22.20;58.50;;;;;;5079253;28;20264;-72
2022/05/26 13:14:33;;;;;;;0.88;0.80;;;22.30;58.60;;;;;;5079080;28;20168;-71
2022/05/26 13:17:10;;;;;;;1.35;0.63;;;22.30;58.50;;;;;;5099491;28;20211;-71
2022/05/26 13:19:54;;;;;;;0.82;0.60;;;22.30;58.60;;;;;;5100131;28;20176;-71
2022/05/26 13:22:37;;;;;;;1.15;0.70;;;22.30;58.50;;;;;;5101453;28;20197;-71
2022/05/26 13:25:10;;;;;;;1.08;0.80;;;22.30;58.50;;;;;;5086269;28;20245;-71
2022/05/26 13:28:08;;;;;;;0.90;0.70;;;22.30;58.50;;;;;;5101935;28;20181;-71
2022/05/26 13:33:48;;;;;;;1.77;0.73;;;22.30;58.50;;;;;;5098138;28;20239;-71
2022/05/26 13:36:37;;;;;;;1.00;0.90;;;22.30;58.50;;;;;;5098820;28;20239;-71
2022/05/26 13:39:12;;;;;;;0.60;0.60;;;22.20;58.40;;;;;;5115627;28;20184;-72
2022/05/26 13:41:41;;;;;;;0.73;0.60;;;22.20;58.40;;;;;;5097657;28;20239;-72
2022/05/26 13:44:18;;;;;;;1.10;0.73;;;22.30;58.50;;;;;;5099920;28;20180;-71
2022/05/26 13:46:50;;;;;;;1.10;0.77;;;22.30;58.50;;;;;;5081217;28;20581;-72
2022/05/26 13:49:43;;;;;;;0.65;0.60;;;22.30;58.60;;;;;;5081170;28;20180;-72
2022/05/26 13:52:31;;;;;;;2.15;1.10;;;22.30;59.10;;;;;;5081126;28;20212;-71
2022/05/26 13:55:04;;;;;;;1.17;0.80;;;22.30;59.10;;;;;;5081333;28;20193;-71
2022/05/26 13:57:47;;;;;;;0.75;0.70;;;22.20;58.50;;;;;;5060806;28;20219;-71
2022/05/26 14:00:34;;;;;;;0.95;0.60;;;22.20;59.20;;;;;;5077628;28;20678;-71
2022/05/26 14:03:31;;;;;;;1.27;0.70;;;22.20;58.40;;;;;;5060908;28;20204;-71
2022/05/26 14:06:07;;;;;;;0.85;0.60;;;22.20;58.50;;;;;;5061285;28;20850;-71
2022/05/26 14:08:47;;;;;;;0.70;0.65;;;22.20;58.40;;;;;;5075974;28;20181;-71
2022/05/26 14:11:41;;;;;;;0.88;0.70;;;22.30;58.50;;;;;;5076526;28;20174;-71
2022/05/26 14:14:31;;;;;;;1.33;0.80;;;22.30;58.50;;;;;;5077683;28;20228;-71